Terminal Aerodrome Forecast
Issued by NWS

Home | Current Version | Previous Version | Text Only | Print | Product List | Glossary On
Versions: 1 2 3 4 5 6 7 8 9 10 11 12 13 14 15 16
000
FTUS43 KGRR 251700
TAFAZO
TAF
KAZO 251740Z 2518/2618 21009KT P6SM BKN150
     FM260300 18005KT P6SM VCSH BKN070 OVC150
     FM261000 19012KT 5SM -SHRA BR BKN050 OVC080
     FM261500 22010KT P6SM OVC015=

USA.gov is the U.S. government's official web portal to all federal, state and local government web resources and services.